sensor_id;sensor_type;location;lat;lon;timestamp;pressure;altitude;pressure_sealevel;temperature;humidity
23953;BME280;12163;49.316;6.092;2023-02-04T00:01:59;100999.03;;;9.83;85.05
23953;BME280;12163;49.316;6.092;2023-02-04T00:04:25;101006.28;;;9.83;85.61
23953;BME280;12163;49.316;6.092;2023-02-04T00:06:52;100992.50;;;9.79;85.57
23953;BME280;12163;49.316;6.092;2023-02-04T00:09:18;100998.94;;;9.78;85.76
23953;BME280;12163;49.316;6.092;2023-02-04T00:11:45;101009.13;;;9.76;86.13
23953;BME280;12163;49.316;6.092;2023-02-04T00:14:12;100992.50;;;9.79;85.96
23953;BME280;12163;49.316;6.092;2023-02-04T00:16:38;100998.94;;;9.78;85.84
23953;BME280;12163;49.316;6.092;2023-02-04T00:19:05;100995.19;;;9.79;85.88
23953;BME280;12163;49.316;6.092;2023-02-04T00:21:31;100995.19;;;9.79;85.88
23953;BME280;12163;49.316;6.092;2023-02-04T00:23:58;100996.25;;;9.78;85.78
23953;BME280;12163;49.316;6.092;2023-02-04T00:26:25;100988.97;;;9.79;85.86
23953;BME280;12163;49.316;6.092;2023-02-04T00:28:51;100985.69;;;9.77;85.96
23953;BME280;12163;49.316;6.092;2023-02-04T00:31:18;100994.34;;;9.79;85.96
23953;BME280;12163;49.316;6.092;2023-02-04T00:33:44;100985.47;;;9.78;85.90
23953;BME280;12163;49.316;6.092;2023-02-04T00:36:11;100986.75;;;9.76;86.00
23953;BME280;12163;49.316;6.092;2023-02-04T00:38:37;100981.59;;;9.74;86.08
23953;BME280;12163;49.316;6.092;2023-02-04T00:41:04;100981.59;;;9.74;86.00
23953;BME280;12163;49.316;6.092;2023-02-04T00:43:32;100986.19;;;9.74;86.08
23953;BME280;12163;49.316;6.092;2023-02-04T00:45:59;100985.13;;;9.75;86.47
23953;BME280;12163;49.316;6.092;2023-02-04T00:48:25;100979.97;;;9.73;85.97
23953;BME280;12163;49.316;6.092;2023-02-04T00:50:52;100986.19;;;9.74;86.24
23953;BME280;12163;49.316;6.092;2023-02-04T00:53:19;100992.38;;;9.74;86.15
23953;BME280;12163;49.316;6.092;2023-02-04T00:55:46;100987.00;;;9.74;86.31
23953;BME280;12163;49.316;6.092;2023-02-04T00:58:12;100989.69;;;9.74;86.24
23953;BME280;12163;49.316;6.092;2023-02-04T01:00:39;100995.34;;;9.73;86.28
23953;BME280;12163;49.316;6.092;2023-02-04T01:03:06;100995.00;;;9.69;86.64
23953;BME280;12163;49.316;6.092;2023-02-04T01:05:33;100990.44;;;9.70;87.00
23953;BME280;12163;49.316;6.092;2023-02-04T01:07:59;100989.63;;;9.69;87.18
23953;BME280;12163;49.316;6.092;2023-02-04T01:10:27;100998.28;;;9.71;86.66
23953;BME280;12163;49.316;6.092;2023-02-04T01:12:54;100988.06;;;9.73;86.67
23953;BME280;12163;49.316;6.092;2023-02-04T01:15:20;100978.34;;;9.72;87.03
23953;BME280;12163;49.316;6.092;2023-02-04T01:17:48;100983.72;;;9.72;87.33
23953;BME280;12163;49.316;6.092;2023-02-04T01:20:15;100988.06;;;9.73;86.74
23953;BME280;12163;49.316;6.092;2023-02-04T01:22:41;100985.84;;;9.70;87.13
23953;BME280;12163;49.316;6.092;2023-02-04T01:25:08;100995.00;;;9.69;87.49
23953;BME280;12163;49.316;6.092;2023-02-04T01:27:35;100986.34;;;9.67;87.52
23953;BME280;12163;49.316;6.092;2023-02-04T01:30:03;100985.34;;;9.73;87.47
23953;BME280;12163;49.316;6.092;2023-02-04T01:32:30;100991.31;;;9.75;87.54
23953;BME280;12163;49.316;6.092;2023-02-04T01:34:56;100987.81;;;9.75;87.73
23953;BME280;12163;49.316;6.092;2023-02-04T01:37:23;100999.09;;;9.72;87.64
23953;BME280;12163;49.316;6.092;2023-02-04T01:39:49;100991.25;;;9.70;87.40
23953;BME280;12163;49.316;6.092;2023-02-04T01:42:16;100995.00;;;9.69;87.99
23953;BME280;12163;49.316;6.092;2023-02-04T01:44:43;100996.34;;;9.67;88.30
23953;BME280;12163;49.316;6.092;2023-02-04T01:47:10;100996.34;;;9.67;88.30
23953;BME280;12163;49.316;6.092;2023-02-04T01:49:36;100991.50;;;9.69;88.23
23953;BME280;12163;49.316;6.092;2023-02-04T01:52:03;100990.94;;;9.67;88.54
23953;BME280;12163;49.316;6.092;2023-02-04T01:54:30;101003.59;;;9.66;88.51
23953;BME280;12163;49.316;6.092;2023-02-04T01:56:57;100993.63;;;9.67;88.67
23953;BME280;12163;49.316;6.092;2023-02-04T01:59:25;101003.66;;;9.71;88.47
23953;BME280;12163;49.316;6.092;2023-02-04T02:01:53;101000.72;;;9.73;88.52
23953;BME280;12163;49.316;6.092;2023-02-04T02:04:31;101001.22;;;9.70;88.31
23953;BME280;12163;49.316;6.092;2023-02-04T02:07:01;100997.78;;;9.74;88.71
23953;BME280;12163;49.316;6.092;2023-02-04T02:09:29;100996.16;;;9.73;88.59
23953;BME280;12163;49.316;6.092;2023-02-04T02:11:57;100993.44;;;9.73;88.72
23953;BME280;12163;49.316;6.092;2023-02-04T02:14:24;100989.69;;;9.74;88.69
23953;BME280;12163;49.316;6.092;2023-02-04T02:16:50;100982.94;;;9.72;89.06
23953;BME280;12163;49.316;6.092;2023-02-04T02:19:23;100998.28;;;9.71;89.04
23953;BME280;12163;49.316;6.092;2023-02-04T02:21:58;100986.69;;;9.71;89.10
23953;BME280;12163;49.316;6.092;2023-02-04T02:24:33;100982.66;;;9.73;89.17
23953;BME280;12163;49.316;6.092;2023-02-04T02:27:06;100980.81;;;9.74;88.90
23953;BME280;12163;49.316;6.092;2023-02-04T02:29:34;100976.22;;;9.74;89.04
23953;BME280;12163;49.316;6.092;2023-02-04T02:32:01;100978.09;;;9.74;89.28
23953;BME280;12163;49.316;6.092;2023-02-04T02:34:29;100977.38;;;9.78;88.84
23953;BME280;12163;49.316;6.092;2023-02-04T02:36:57;100975.75;;;9.77;88.95
23953;BME280;12163;49.316;6.092;2023-02-04T02:39:25;100970.34;;;9.77;88.57
23953;BME280;12163;49.316;6.092;2023-02-04T02:41:53;100959.56;;;9.77;88.87
23953;BME280;12163;49.316;6.092;2023-02-04T02:44:20;100966.00;;;9.76;88.59
23953;BME280;12163;49.316;6.092;2023-02-04T02:46:47;100969.53;;;9.77;88.94
23953;BME280;12163;49.316;6.092;2023-02-04T02:49:16;100972.00;;;9.78;88.51
23953;BME280;12163;49.316;6.092;2023-02-04T02:51:44;100973.34;;;9.81;88.63
23953;BME280;12163;49.316;6.092;2023-02-04T02:54:26;100979.81;;;9.80;88.35
23953;BME280;12163;49.316;6.092;2023-02-04T02:56:54;100983.91;;;9.82;88.61
23953;BME280;12163;49.316;6.092;2023-02-04T02:59:21;100982.28;;;9.81;88.47
23953;BME280;12163;49.316;6.092;2023-02-04T03:01:53;100991.44;;;9.80;88.57
23953;BME280;12163;49.316;6.092;2023-02-04T03:04:20;100979.31;;;9.83;88.57
23953;BME280;12163;49.316;6.092;2023-02-04T03:06:48;100981.22;;;9.82;88.20
23953;BME280;12163;49.316;6.092;2023-02-04T03:09:15;100981.78;;;9.84;88.41
23953;BME280;12163;49.316;6.092;2023-02-04T03:11:41;100983.41;;;9.85;88.15
23953;BME280;12163;49.316;6.092;2023-02-04T03:14:08;100981.28;;;9.87;88.10
23953;BME280;12163;49.316;6.092;2023-02-04T03:16:35;100979.66;;;9.86;88.14
23953;BME280;12163;49.316;6.092;2023-02-04T03:19:05;100988.81;;;9.85;88.01
23953;BME280;12163;49.316;6.092;2023-02-04T03:21:33;100990.44;;;9.86;88.17
23953;BME280;12163;49.316;6.092;2023-02-04T03:24:00;101002.84;;;9.87;87.80
23953;BME280;12163;49.316;6.092;2023-02-04T03:26:27;100993.72;;;9.88;88.12
23953;BME280;12163;49.316;6.092;2023-02-04T03:28:53;101002.84;;;9.87;88.12
23953;BME280;12163;49.316;6.092;2023-02-04T03:31:20;101001.78;;;9.88;88.13
23953;BME280;12163;49.316;6.092;2023-02-04T03:33:47;101006.34;;;9.88;88.35
23953;BME280;12163;49.316;6.092;2023-02-04T03:36:14;101003.44;;;9.89;88.51
23953;BME280;12163;49.316;6.092;2023-02-04T03:38:40;100999.94;;;9.89;88.18
23953;BME280;12163;49.316;6.092;2023-02-04T03:41:07;100999.09;;;9.88;88.10
23953;BME280;12163;49.316;6.092;2023-02-04T03:43:33;101001.22;;;9.86;88.34
23953;BME280;12163;49.316;6.092;2023-02-04T03:46:00;100995.00;;;9.86;88.26
23953;BME280;12163;49.316;6.092;2023-02-04T03:48:27;100997.13;;;9.84;88.02
23953;BME280;12163;49.316;6.092;2023-02-04T03:50:53;101004.16;;;9.85;88.03
23953;BME280;12163;49.316;6.092;2023-02-04T03:53:20;101006.84;;;9.85;87.83
23953;BME280;12163;49.316;6.092;2023-02-04T03:55:47;101007.69;;;9.85;88.18
23953;BME280;12163;49.316;6.092;2023-02-04T03:58:14;100999.59;;;9.85;87.96
23953;BME280;12163;49.316;6.092;2023-02-04T04:00:40;100999.59;;;9.85;88.41
23953;BME280;12163;49.316;6.092;2023-02-04T04:03:07;101013.16;;;9.90;87.71
23953;BME280;12163;49.316;6.092;2023-02-04T04:05:34;101008.88;;;9.94;87.50
23953;BME280;12163;49.316;6.092;2023-02-04T04:08:01;101024.13;;;10.00;87.27
23953;BME280;12163;49.316;6.092;2023-02-04T04:10:27;101008.72;;;10.00;87.29
23953;BME280;12163;49.316;6.092;2023-02-04T04:12:55;101019.41;;;10.07;87.12
23953;BME280;12163;49.316;6.092;2023-02-04T04:15:22;101008.59;;;10.07;86.59
23953;BME280;12163;49.316;6.092;2023-02-04T04:17:49;101016.78;;;10.12;86.57
23953;BME280;12163;49.316;6.092;2023-02-04T04:20:16;101020.88;;;10.14;86.82
23953;BME280;12163;49.316;6.092;2023-02-04T04:22:43;101031.97;;;10.18;85.95
23953;BME280;12163;49.316;6.092;2023-02-04T04:25:11;101028.19;;;10.19;86.17
23953;BME280;12163;49.316;6.092;2023-02-04T04:27:37;101033.13;;;10.22;86.38
23953;BME280;12163;49.316;6.092;2023-02-04T04:30:04;101035.81;;;10.22;85.72
23953;BME280;12163;49.316;6.092;2023-02-04T04:32:31;101033.94;;;10.22;85.72
23953;BME280;12163;49.316;6.092;2023-02-04T04:34:58;101034.75;;;10.23;85.67
23953;BME280;12163;49.316;6.092;2023-02-04T04:37:24;101024.78;;;10.23;85.13
23953;BME280;12163;49.316;6.092;2023-02-04T04:39:52;101027.22;;;10.25;85.59
23953;BME280;12163;49.316;6.092;2023-02-04T04:42:18;101025.09;;;10.27;85.27
23953;BME280;12163;49.316;6.092;2023-02-04T04:44:45;101027.31;;;10.30;85.34
23953;BME280;12163;49.316;6.092;2023-02-04T04:47:11;101033.03;;;10.33;84.84
23953;BME280;12163;49.316;6.092;2023-02-04T04:49:38;101021.97;;;10.35;84.04
23953;BME280;12163;49.316;6.092;2023-02-04T04:52:05;101037.66;;;10.38;84.05
23953;BME280;12163;49.316;6.092;2023-02-04T04:54:31;101026.88;;;10.38;84.12
23953;BME280;12163;49.316;6.092;2023-02-04T04:56:58;101033.91;;;10.39;84.19
23953;BME280;12163;49.316;6.092;2023-02-04T04:59:24;101031.75;;;10.41;83.60
23953;BME280;12163;49.316;6.092;2023-02-04T05:01:51;101030.13;;;10.40;83.96
23953;BME280;12163;49.316;6.092;2023-02-04T05:04:17;101033.41;;;10.42;83.48
23953;BME280;12163;49.316;6.092;2023-02-04T05:06:44;101028.84;;;10.42;83.30
23953;BME280;12163;49.316;6.092;2023-02-04T05:09:11;101029.41;;;10.44;83.01
23953;BME280;12163;49.316;6.092;2023-02-04T05:11:38;101036.69;;;10.44;83.42
23953;BME280;12163;49.316;6.092;2023-02-04T05:14:04;101028.84;;;10.42;83.10
23953;BME280;12163;49.316;6.092;2023-02-04T05:16:31;101029.06;;;10.41;83.29
23953;BME280;12163;49.316;6.092;2023-02-04T05:18:57;101030.13;;;10.40;83.02
23953;BME280;12163;49.316;6.092;2023-02-04T05:21:24;101033.41;;;10.42;83.16
23953;BME280;12163;49.316;6.092;2023-02-04T05:23:50;101026.94;;;10.43;82.95
23953;BME280;12163;49.316;6.092;2023-02-04T05:26:17;101036.09;;;10.42;83.27
23953;BME280;12163;49.316;6.092;2023-02-04T05:28:55;101034.47;;;10.41;83.24
23953;BME280;12163;49.316;6.092;2023-02-04T05:31:22;101049.59;;;10.42;82.83
23953;BME280;12163;49.316;6.092;2023-02-04T05:33:49;101049.59;;;10.42;82.92
23953;BME280;12163;49.316;6.092;2023-02-04T05:36:15;101049.59;;;10.42;83.24
23953;BME280;12163;49.316;6.092;2023-02-04T05:38:43;101051.50;;;10.41;83.23
23953;BME280;12163;49.316;6.092;2023-02-04T05:41:09;101055.81;;;10.42;83.24
23953;BME280;12163;49.316;6.092;2023-02-04T05:43:36;101060.66;;;10.40;83.19
23953;BME280;12163;49.316;6.092;2023-02-04T05:46:03;101059.81;;;10.40;82.97
23953;BME280;12163;49.316;6.092;2023-02-04T05:48:30;101055.50;;;10.39;83.38
23953;BME280;12163;49.316;6.092;2023-02-04T05:50:56;101046.81;;;10.37;83.56
23953;BME280;12163;49.316;6.092;2023-02-04T05:53:23;101057.63;;;10.37;83.56
23953;BME280;12163;49.316;6.092;2023-02-04T05:55:51;101055.41;;;10.34;83.72
23953;BME280;12163;49.316;6.092;2023-02-04T05:58:18;101058.19;;;10.39;83.92
23953;BME280;12163;49.316;6.092;2023-02-04T06:00:45;101070.72;;;10.45;83.89
23953;BME280;12163;49.316;6.092;2023-02-04T06:03:11;101070.50;;;10.51;83.42
23953;BME280;12163;49.316;6.092;2023-02-04T06:05:39;101062.97;;;10.53;83.41
23953;BME280;12163;49.316;6.092;2023-02-04T06:08:06;101080.00;;;10.54;83.15
23953;BME280;12163;49.316;6.092;2023-02-04T06:10:33;101083.78;;;10.53;83.17
23953;BME280;12163;49.316;6.092;2023-02-04T06:12:59;101082.16;;;10.52;82.99
23953;BME280;12163;49.316;6.092;2023-02-04T06:15:26;101090.25;;;10.52;83.25
23953;BME280;12163;49.316;6.092;2023-02-04T06:17:53;101091.31;;;10.51;83.10
23953;BME280;12163;49.316;6.092;2023-02-04T06:20:19;101097.03;;;10.54;83.21
23953;BME280;12163;49.316;6.092;2023-02-04T06:22:46;101097.34;;;10.58;83.77
23953;BME280;12163;49.316;6.092;2023-02-04T06:25:17;101102.06;;;10.67;83.53
23953;BME280;12163;49.316;6.092;2023-02-04T06:27:44;101106.97;;;10.70;83.44
23953;BME280;12163;49.316;6.092;2023-02-04T06:30:11;101112.84;;;10.84;83.18
23953;BME280;12163;49.316;6.092;2023-02-04T06:32:37;101116.19;;;10.91;82.73
23953;BME280;12163;49.316;6.092;2023-02-04T06:35:04;101111.94;;;11.16;83.59
23953;BME280;12163;49.316;6.092;2023-02-04T06:37:31;101117.28;;;11.33;82.35
23953;BME280;12163;49.316;6.092;2023-02-04T06:39:58;101123.25;;;11.35;82.08
23953;BME280;12163;49.316;6.092;2023-02-04T06:42:24;101131.84;;;11.32;81.74
23953;BME280;12163;49.316;6.092;2023-02-04T06:44:52;101131.72;;;11.22;81.67
23953;BME280;12163;49.316;6.092;2023-02-04T06:47:18;101133.25;;;11.13;81.97
23953;BME280;12163;49.316;6.092;2023-02-04T06:49:45;101141.47;;;11.01;81.81
23953;BME280;12163;49.316;6.092;2023-02-04T06:52:11;101150.31;;;10.97;81.83
23953;BME280;12163;49.316;6.092;2023-02-04T06:54:38;101149.09;;;10.88;81.77
23953;BME280;12163;49.316;6.092;2023-02-04T06:57:05;101157.88;;;10.78;82.43
23953;BME280;12163;49.316;6.092;2023-02-04T06:59:36;101168.34;;;10.75;82.33
23953;BME280;12163;49.316;6.092;2023-02-04T07:02:04;101169.56;;;10.67;82.21
23953;BME280;12163;49.316;6.092;2023-02-04T07:04:32;101171.28;;;10.57;82.39
23953;BME280;12163;49.316;6.092;2023-02-04T07:06:59;101165.56;;;10.53;82.73
23953;BME280;12163;49.316;6.092;2023-02-04T07:09:25;101156.31;;;10.49;82.37
23953;BME280;12163;49.316;6.092;2023-02-04T07:11:52;101148.97;;;10.45;82.54
23953;BME280;12163;49.316;6.092;2023-02-04T07:14:19;101145.09;;;10.41;81.88
23953;BME280;12163;49.316;6.092;2023-02-04T07:16:46;101150.69;;;10.34;81.93
23953;BME280;12163;49.316;6.092;2023-02-04T07:19:12;101147.88;;;10.29;82.08
23953;BME280;12163;49.316;6.092;2023-02-04T07:21:39;101154.13;;;10.30;82.02
23953;BME280;12163;49.316;6.092;2023-02-04T07:24:05;101153.28;;;10.29;81.78
23953;BME280;12163;49.316;6.092;2023-02-04T07:26:32;101163.63;;;10.32;82.15
23953;BME280;12163;49.316;6.092;2023-02-04T07:28:59;101171.44;;;10.34;82.09
23953;BME280;12163;49.316;6.092;2023-02-04T07:31:26;101174.22;;;10.39;82.38
23953;BME280;12163;49.316;6.092;2023-02-04T07:33:53;101183.72;;;10.41;82.36
23953;BME280;12163;49.316;6.092;2023-02-04T07:36:19;101198.03;;;10.42;81.95
23953;BME280;12163;49.316;6.092;2023-02-04T07:38:46;101202.84;;;10.40;82.09
23953;BME280;12163;49.316;6.092;2023-02-04T07:41:13;101199.09;;;10.41;82.27
23953;BME280;12163;49.316;6.092;2023-02-04T07:43:39;101194.53;;;10.41;82.28
23953;BME280;12163;49.316;6.092;2023-02-04T07:46:06;101186.16;;;10.43;82.22
23953;BME280;12163;49.316;6.092;2023-02-04T07:48:33;101196.16;;;10.42;82.19
23953;BME280;12163;49.316;6.092;2023-02-04T07:50:59;101188.63;;;10.44;82.17
23953;BME280;12163;49.316;6.092;2023-02-04T07:53:26;101203.75;;;10.45;82.52
23953;BME280;12163;49.316;6.092;2023-02-04T07:55:52;101194.09;;;10.49;82.28
23953;BME280;12163;49.316;6.092;2023-02-04T07:58:19;101201.41;;;10.49;81.74
23953;BME280;12163;49.316;6.092;2023-02-04T08:00:45;101194.94;;;10.50;81.83
23953;BME280;12163;49.316;6.092;2023-02-04T08:03:12;101201.72;;;10.52;81.67
23953;BME280;12163;49.316;6.092;2023-02-04T08:05:39;101207.94;;;10.53;81.66
23953;BME280;12163;49.316;6.092;2023-02-04T08:08:05;101217.09;;;10.52;81.96
23953;BME280;12163;49.316;6.092;2023-02-04T08:10:32;101215.22;;;10.52;81.74
23953;BME280;12163;49.316;6.092;2023-02-04T08:12:59;101210.06;;;10.51;81.34
23953;BME280;12163;49.316;6.092;2023-02-04T08:15:26;101214.97;;;10.54;81.68
23953;BME280;12163;49.316;6.092;2023-02-04T08:17:52;101212.34;;;10.59;81.76
23953;BME280;12163;49.316;6.092;2023-02-04T08:20:19;101225.34;;;10.62;81.63
23953;BME280;12163;49.316;6.092;2023-02-04T08:22:45;101227.56;;;10.65;81.25
23953;BME280;12163;49.316;6.092;2023-02-04T08:25:12;101240.59;;;10.68;81.24
23953;BME280;12163;49.316;6.092;2023-02-04T08:27:39;101235.78;;;10.70;81.21
23953;BME280;12163;49.316;6.092;2023-02-04T08:30:06;101238.47;;;10.70;80.42
23953;BME280;12163;49.316;6.092;2023-02-04T08:32:32;101234.13;;;10.69;80.89
23953;BME280;12163;49.316;6.092;2023-02-04T08:34:59;101244.09;;;10.68;80.38
23953;BME280;12163;49.316;6.092;2023-02-04T08:37:26;101248.22;;;10.71;80.65
23953;BME280;12163;49.316;6.092;2023-02-04T08:39:53;101259.31;;;10.74;80.29
23953;BME280;12163;49.316;6.092;2023-02-04T08:42:19;101246.09;;;10.73;80.26
23953;BME280;12163;49.316;6.092;2023-02-04T08:44:46;101259.00;;;10.71;80.12
23953;BME280;12163;49.316;6.092;2023-02-04T08:47:12;101266.28;;;10.70;80.28
23953;BME280;12163;49.316;6.092;2023-02-04T08:49:39;101266.53;;;10.69;79.88
23953;BME280;12163;49.316;6.092;2023-02-04T08:52:06;101274.06;;;10.67;79.89
23953;BME280;12163;49.316;6.092;2023-02-04T08:54:34;101272.31;;;10.61;79.75
23953;BME280;12163;49.316;6.092;2023-02-04T08:57:01;101272.56;;;10.59;79.17
23953;BME280;12163;49.316;6.092;2023-02-04T08:59:28;101272.22;;;10.56;78.47
23953;BME280;12163;49.316;6.092;2023-02-04T09:01:55;101271.19;;;10.57;78.60
23953;BME280;12163;49.316;6.092;2023-02-04T09:04:22;101287.94;;;10.59;78.44
23953;BME280;12163;49.316;6.092;2023-02-04T09:06:50;101276.66;;;10.62;77.68
23953;BME280;12163;49.316;6.092;2023-02-04T09:09:17;101271.94;;;10.69;77.49
23953;BME280;12163;49.316;6.092;2023-02-04T09:11:46;101276.34;;;10.75;77.41
23953;BME280;12163;49.316;6.092;2023-02-04T09:14:12;101270.53;;;10.83;77.10
23953;BME280;12163;49.316;6.092;2023-02-04T09:16:39;101284.72;;;10.90;76.92
23953;BME280;12163;49.316;6.092;2023-02-04T09:19:06;101271.28;;;10.95;76.96
23953;BME280;12163;49.316;6.092;2023-02-04T09:21:34;101277.00;;;10.98;75.84
23953;BME280;12163;49.316;6.092;2023-02-04T09:24:01;101272.94;;;10.96;75.19
23953;BME280;12163;49.316;6.092;2023-02-04T09:26:27;101278.00;;;10.92;75.14
23953;BME280;12163;49.316;6.092;2023-02-04T09:28:54;101284.22;;;10.93;75.58
23953;BME280;12163;49.316;6.092;2023-02-04T09:31:21;101287.00;;;10.98;75.56
23953;BME280;12163;49.316;6.092;2023-02-04T09:33:48;101294.69;;;11.06;75.26
23953;BME280;12163;49.316;6.092;2023-02-04T09:36:14;101290.75;;;11.13;75.45
23953;BME280;12163;49.316;6.092;2023-02-04T09:38:41;101296.50;;;11.17;74.54
23953;BME280;12163;49.316;6.092;2023-02-04T09:41:09;101291.91;;;11.17;74.67
23953;BME280;12163;49.316;6.092;2023-02-04T09:43:39;101299.28;;;11.22;75.17
23953;BME280;12163;49.316;6.092;2023-02-04T09:46:17;101293.38;;;11.25;74.52
23953;BME280;12163;49.316;6.092;2023-02-04T09:48:46;101295.28;;;11.24;74.61
23953;BME280;12163;49.316;6.092;2023-02-04T09:51:18;101304.19;;;11.25;74.08
23953;BME280;12163;49.316;6.092;2023-02-04T09:53:46;101297.63;;;11.21;73.68
23953;BME280;12163;49.316;6.092;2023-02-04T09:56:14;101303.63;;;11.23;74.03
23953;BME280;12163;49.316;6.092;2023-02-04T09:58:41;101300.97;;;11.28;74.00
23953;BME280;12163;49.316;6.092;2023-02-04T10:01:14;101311.06;;;11.32;74.59
23953;BME280;12163;49.316;6.092;2023-02-04T10:03:43;101321.44;;;11.40;73.63
23953;BME280;12163;49.316;6.092;2023-02-04T10:06:18;101315.56;;;11.43;73.02
23953;BME280;12163;49.316;6.092;2023-02-04T10:08:46;101316.59;;;11.42;73.51
23953;BME280;12163;49.316;6.092;2023-02-04T10:11:15;101313.34;;;11.40;72.71
23953;BME280;12163;49.316;6.092;2023-02-04T10:13:45;101322.00;;;11.42;73.54
23953;BME280;12163;49.316;6.092;2023-02-04T10:16:23;101323.34;;;11.40;73.02
23953;BME280;12163;49.316;6.092;2023-02-04T10:19:00;101317.31;;;11.33;72.82
23953;BME280;12163;49.316;6.092;2023-02-04T10:21:34;101317.75;;;11.30;72.74
23953;BME280;12163;49.316;6.092;2023-02-04T10:24:15;101328.56;;;11.30;72.01
23953;BME280;12163;49.316;6.092;2023-02-04T10:26:42;101315.16;;;11.35;72.60
23953;BME280;12163;49.316;6.092;2023-02-04T10:29:17;101322.22;;;11.36;71.83
23953;BME280;12163;49.316;6.092;2023-02-04T10:31:49;101322.28;;;11.41;71.01
23953;BME280;12163;49.316;6.092;2023-02-04T10:34:17;101316.94;;;11.46;71.25
23953;BME280;12163;49.316;6.092;2023-02-04T10:36:53;101320.78;;;11.50;70.19
23953;BME280;12163;49.316;6.092;2023-02-04T10:39:21;101319.13;;;11.49;70.28
23953;BME280;12163;49.316;6.092;2023-02-04T10:41:53;101324.81;;;11.47;69.76
23953;BME280;12163;49.316;6.092;2023-02-04T10:47:06;101324.97;;;11.41;68.32
23953;BME280;12163;49.316;6.092;2023-02-04T10:49:34;101319.72;;;11.34;67.73
23953;BME280;12163;49.316;6.092;2023-02-04T10:52:05;101321.03;;;11.32;67.02
23953;BME280;12163;49.316;6.092;2023-02-04T10:54:39;101329.25;;;11.37;67.41
23953;BME280;12163;49.316;6.092;2023-02-04T10:59:42;101324.47;;;11.44;66.45
23953;BME280;12163;49.316;6.092;2023-02-04T11:02:39;101320.28;;;11.53;65.80
23953;BME280;12163;49.316;6.092;2023-02-04T11:05:30;101330.03;;;11.54;64.99
23953;BME280;12163;49.316;6.092;2023-02-04T11:07:58;101330.22;;;11.64;64.65
23953;BME280;12163;49.316;6.092;2023-02-04T11:10:31;101321.66;;;11.72;64.59
23953;BME280;12163;49.316;6.092;2023-02-04T11:13:01;101320.69;;;11.77;63.87
23953;BME280;12163;49.316;6.092;2023-02-04T11:15:47;101327.22;;;11.81;63.81
23953;BME280;12163;49.316;6.092;2023-02-04T11:20:47;101326.28;;;11.92;63.28
23953;BME280;12163;49.316;6.092;2023-02-04T11:33:48;101322.94;;;11.85;59.63
23953;BME280;12163;49.316;6.092;2023-02-04T11:36:16;101315.91;;;11.84;60.18
23953;BME280;12163;49.316;6.092;2023-02-04T11:38:45;101310.50;;;11.84;60.42
23953;BME280;12163;49.316;6.092;2023-02-04T11:41:21;101317.59;;;11.90;60.89
23953;BME280;12163;49.316;6.092;2023-02-04T11:43:51;101310.69;;;11.99;60.99
23953;BME280;12163;49.316;6.092;2023-02-04T11:46:18;101324.34;;;12.09;61.25
23953;BME280;12163;49.316;6.092;2023-02-04T11:48:45;101322.38;;;12.05;61.18
23953;BME280;12163;49.316;6.092;2023-02-04T11:51:16;101318.31;;;12.02;62.28
23953;BME280;12163;49.316;6.092;2023-02-04T11:53:50;101316.41;;;12.03;62.00
23953;BME280;12163;49.316;6.092;2023-02-04T11:56:18;101316.72;;;12.06;62.24
23953;BME280;12163;49.316;6.092;2023-02-04T11:58:46;101319.75;;;12.10;61.57
23953;BME280;12163;49.316;6.092;2023-02-04T12:01:24;101314.41;;;12.15;62.10
23953;BME280;12163;49.316;6.092;2023-02-04T12:03:57;101311.50;;;12.21;61.49
23953;BME280;12163;49.316;6.092;2023-02-04T12:06:27;101318.59;;;12.27;61.14
23953;BME280;12163;49.316;6.092;2023-02-04T12:11:39;101319.50;;;12.33;60.32
23953;BME280;12163;49.316;6.092;2023-02-04T12:14:17;101316.00;;;12.37;60.21
23953;BME280;12163;49.316;6.092;2023-02-04T12:16:45;101316.06;;;12.42;59.17
23953;BME280;12163;49.316;6.092;2023-02-04T12:19:13;101313.34;;;12.42;59.73
23953;BME280;12163;49.316;6.092;2023-02-04T12:21:39;101319.63;;;12.48;60.32
23953;BME280;12163;49.316;6.092;2023-02-04T12:24:06;101312.72;;;12.57;59.82
23953;BME280;12163;49.316;6.092;2023-02-04T12:26:33;101317.34;;;12.61;59.74
23953;BME280;12163;49.316;6.092;2023-02-04T12:28:59;101313.00;;;12.60;58.76
23953;BME280;12163;49.316;6.092;2023-02-04T12:31:29;101317.34;;;12.61;58.96
23953;BME280;12163;49.316;6.092;2023-02-04T12:33:56;101322.19;;;12.59;58.43
23953;BME280;12163;49.316;6.092;2023-02-04T12:36:23;101322.19;;;12.59;58.21
23953;BME280;12163;49.316;6.092;2023-02-04T12:38:50;101308.13;;;12.62;58.58
23953;BME280;12163;49.316;6.092;2023-02-04T12:41:16;101308.25;;;12.72;58.60
23953;BME280;12163;49.316;6.092;2023-02-04T12:43:45;101315.09;;;12.80;56.98
23953;BME280;12163;49.316;6.092;2023-02-04T12:46:16;101317.25;;;12.78;56.42
23953;BME280;12163;49.316;6.092;2023-02-04T12:48:43;101320.75;;;12.78;56.60
23953;BME280;12163;49.316;6.092;2023-02-04T12:51:09;101316.38;;;12.72;55.92
23953;BME280;12163;49.316;6.092;2023-02-04T12:53:36;101316.81;;;12.64;55.17
23953;BME280;12163;49.316;6.092;2023-02-04T12:56:03;101313.78;;;12.56;56.12
23953;BME280;12163;49.316;6.092;2023-02-04T12:58:30;101309.13;;;12.51;56.37
23953;BME280;12163;49.316;6.092;2023-02-04T13:00:56;101312.94;;;12.55;56.33
23953;BME280;12163;49.316;6.092;2023-02-04T13:03:23;101308.47;;;12.66;57.00
23953;BME280;12163;49.316;6.092;2023-02-04T13:05:50;101306.63;;;12.71;56.54
23953;BME280;12163;49.316;6.092;2023-02-04T13:08:17;101306.09;;;12.74;56.20
23953;BME280;12163;49.316;6.092;2023-02-04T13:10:43;101299.09;;;12.78;56.43
23953;BME280;12163;49.316;6.092;2023-02-04T13:13:10;101301.28;;;12.81;56.07
23953;BME280;12163;49.316;6.092;2023-02-04T13:15:37;101295.59;;;12.78;56.40
23953;BME280;12163;49.316;6.092;2023-02-04T13:18:03;101298.53;;;12.76;56.46